Beechwood, Michigan
Current Conditions -  °F | °C
As of 8:55 AM on Thursday 23 Oct 2014 (Local Time) from KLNL Reporting Station
Light Rain Light Rain  
Wind Chill:   Ceiling: 1700
Heat Index:   Visibility: 10mi
Dew Point:   Wind: 5mph
Humidity: 86%   Direction: 170°S
Pressure: 30.05"   Gusts: NA
Location:  46.2163°N, 88.7676°W
Report Text: KLNL 231355Z AUTO 17004KT 10SM -RA OVC017 07/04 A3005 RMK AO2 T00650043
Loading
Personal Weather Stations






























Interactive Weather Map
Tropical Storm Tracking
New forecast layout! Learn more

10-Day Weather Forecast

Advertisements
Track Severe Weather on mobile